Time;durP1;ratioP1;P1;durP2;ratioP2;P2;SDS_P1;SDS_P2;PMS_P1;PMS_P2;Temp;Humidity;BMP_temperature;BMP_pressure;BME280_temperature;BME280_humidity;BME280_pressure;Samples;Min_cycle;Max_cycle;Signal;HPM_P1;HPM_P2
2022/06/09 00:01:23;;;;;;;5.28;3.20;;;;;;;18.67;nan;99777.94;5043412;28;20115;-68
2022/06/09 00:04:31;;;;;;;5.25;2.75;;;;;;;18.70;nan;99774.69;5044805;28;20028;-68
2022/06/09 00:07:17;;;;;;;3.80;3.00;;;;;;;18.69;nan;99767.75;5024826;28;20028;-66
2022/06/09 00:09:49;;;;;;;3.17;2.60;;;;;;;18.75;nan;99771.94;5045401;28;20400;-68
2022/06/09 00:12:14;;;;;;;4.10;3.00;;;;;;;18.75;nan;99768.44;5036520;28;20426;-68
2022/06/09 00:14:40;;;;;;;4.05;2.80;;;;;;;18.70;nan;99769.38;5036280;28;20051;-68
2022/06/09 00:17:06;;;;;;;4.38;2.83;;;;;;;18.70;nan;99766.69;5031634;28;20372;-67
2022/06/09 00:19:32;;;;;;;4.32;2.60;;;;;;;18.66;nan;99763.03;5042774;28;20029;-68
2022/06/09 00:21:57;;;;;;;5.50;2.53;;;;;;;18.54;nan;99747.50;5044999;28;20034;-68
2022/06/09 00:24:23;;;;;;;4.35;2.80;;;;;;;18.62;nan;99754.03;5047840;28;20036;-67
2022/06/09 00:26:49;;;;;;;5.43;2.83;;;;;;;18.66;nan;99760.34;5049273;28;20060;-67
2022/06/09 00:29:14;;;;;;;3.00;2.70;;;;;;;18.55;nan;99743.75;5044627;28;20120;-67
2022/06/09 00:31:40;;;;;;;4.75;2.40;;;;;;;18.64;nan;99762.53;5041849;28;20222;-67
2022/06/09 00:34:05;;;;;;;3.55;2.90;;;;;;;18.65;nan;99764.09;5038618;28;20037;-68
2022/06/09 00:36:31;;;;;;;3.97;2.67;;;;;;;18.58;nan;99751.16;5042416;28;20037;-68
2022/06/09 00:38:57;;;;;;;3.17;2.88;;;;;;;18.60;nan;99754.31;5030531;28;20495;-68
2022/06/09 00:41:24;;;;;;;3.72;2.40;;;;;;;18.65;nan;99753.44;5039369;28;20045;-68
2022/06/09 00:43:51;;;;;;;2.70;2.50;;;;;;;18.68;nan;99756.31;5047542;28;20091;-68
2022/06/09 00:46:30;;;;;;;4.70;2.90;;;;;;;18.62;nan;99746.03;5041595;28;20029;-67
2022/06/09 00:48:58;;;;;;;;;;;;;;;18.67;nan;99751.25;5048006;28;20124;-68
2022/06/09 00:51:35;;;;;;;3.13;2.40;;;;;;;18.66;nan;99757.69;5032255;28;20358;-68
2022/06/09 00:54:12;;;;;;;3.40;2.63;;;;;;;18.66;nan;99749.69;5042185;28;20033;-68
2022/06/09 00:56:43;;;;;;;4.88;2.75;;;;;;;18.58;nan;99748.50;5045838;28;20037;-67
2022/06/09 00:59:15;;;;;;;3.78;2.40;;;;;;;18.55;nan;99746.41;5037194;28;20036;-67
2022/06/09 01:01:41;;;;;;;3.42;2.25;;;;;;;18.53;nan;99758.44;5044493;28;20037;-70
2022/06/09 01:04:11;;;;;;;3.40;2.58;;;;;;;18.54;nan;99752.03;5051738;28;20040;-69
2022/06/09 01:07:11;;;;;;;4.15;2.65;;;;;;;18.54;nan;99754.72;5027008;28;20088;-68
2022/06/09 01:09:37;;;;;;;4.10;2.70;;;;;;;18.48;nan;99754.81;5014286;28;20037;-68
2022/06/09 01:12:31;;;;;;;3.88;2.50;;;;;;;18.48;nan;99754.81;5049050;28;20112;-69
2022/06/09 01:15:06;;;;;;;5.13;2.65;;;;;;;18.46;nan;99750.81;5039507;28;20036;-69
2022/06/09 01:17:52;;;;;;;4.28;3.10;;;;;;;18.45;nan;99758.03;5038717;28;20037;-69
2022/06/09 01:20:21;;;;;;;5.15;3.25;;;;;;;18.44;nan;99758.34;5045860;28;20056;-69
2022/06/09 01:23:10;;;;;;;3.65;2.72;;;;;;;18.44;nan;99761.81;5037085;28;20076;-68
2022/06/09 01:26:03;;;;;;;3.15;2.72;;;;;;;18.44;nan;99753.81;5043049;28;20526;-69
2022/06/09 01:28:53;;;;;;;8.35;4.28;;;;;;;18.43;nan;99757.53;5041018;28;20053;-69
2022/06/09 01:31:28;;;;;;;3.80;3.13;;;;;;;18.40;nan;99752.00;5046467;28;20043;-69
2022/06/09 01:33:58;;;;;;;5.45;3.20;;;;;;;18.43;nan;99752.19;5051458;28;20111;-68
2022/06/09 01:36:52;;;;;;;4.00;3.03;;;;;;;18.43;nan;99744.22;5044260;28;20037;-68
2022/06/09 01:39:28;;;;;;;4.43;3.70;;;;;;;18.34;nan;99732.66;5029791;28;20029;-68
2022/06/09 01:41:53;;;;;;;3.78;3.38;;;;;;;18.32;nan;99734.81;5044149;28;20056;-69
2022/06/09 01:44:19;;;;;;;4.50;3.20;;;;;;;18.22;nan;99716.31;5054502;28;20083;-69
2022/06/09 01:46:46;;;;;;;4.90;3.35;;;;;;;18.30;nan;99734.31;5040160;28;20029;-68
2022/06/09 01:49:21;;;;;;;3.85;3.30;;;;;;;18.25;nan;99737.84;5042405;28;20029;-69
2022/06/09 01:51:50;;;;;;;5.53;3.72;;;;;;;18.25;nan;99734.41;5038800;28;20036;-69
2022/06/09 01:54:20;;;;;;;5.22;3.90;;;;;;;18.22;nan;99722.47;5036697;28;20067;-69
2022/06/09 01:56:51;;;;;;;5.38;3.22;;;;;;;18.24;nan;99725.63;5049596;28;20391;-69
2022/06/09 01:59:23;;;;;;;5.32;3.10;;;;;;;18.34;nan;99729.19;5052891;28;20036;-68
2022/06/09 02:01:59;;;;;;;5.55;3.30;;;;;;;18.30;nan;99730.88;5040216;28;20087;-68
2022/06/09 02:04:33;;;;;;;4.65;3.75;;;;;;;18.30;nan;99723.66;5037096;28;20034;-68
2022/06/09 02:07:02;;;;;;;5.22;3.97;;;;;;;18.35;nan;99728.09;5038307;28;20025;-68
2022/06/09 02:09:29;;;;;;;;;;;;;;;18.44;nan;99745.03;5034287;28;20037;-69
2022/06/09 02:11:56;;;;;;;3.88;3.47;;;;;;;18.45;nan;99738.59;5030297;28;19963;-69
2022/06/09 02:14:27;;;;;;;4.05;3.13;;;;;;;18.38;nan;99728.31;5051344;28;20399;-69
2022/06/09 02:16:53;;;;;;;7.72;3.80;;;;;;;18.42;nan;99729.31;5043728;28;20038;-72
2022/06/09 02:19:18;;;;;;;5.10;4.00;;;;;;;18.46;nan;99730.31;5039242;28;20048;-70
2022/06/09 02:21:44;;;;;;;4.93;3.47;;;;;;;18.50;nan;99743.84;5021528;28;20392;-72
2022/06/09 02:24:10;;;;;;;13.23;4.10;;;;;;;18.47;nan;99745.22;5037451;28;20507;-71
2022/06/09 02:26:35;;;;;;;3.38;3.08;;;;;;;18.40;nan;99725.34;5048152;28;20044;-72
2022/06/09 02:29:05;;;;;;;5.50;3.50;;;;;;;18.46;nan;99730.31;5026524;28;20132;-71
2022/06/09 02:31:31;;;;;;;4.40;3.72;;;;;;;18.38;nan;99717.63;5036642;28;20411;-71
2022/06/09 02:33:57;;;;;;;5.22;3.58;;;;;;;18.31;nan;99711.91;5037944;28;20032;-70
2022/06/09 02:36:23;;;;;;;3.88;3.33;;;;;;;18.39;nan;99721.91;5035363;28;20040;-71
2022/06/09 02:38:49;;;;;;;5.82;3.90;;;;;;;18.35;nan;99717.44;5033623;28;20037;-71
2022/06/09 02:41:14;;;;;;;4.72;3.50;;;;;;;18.27;nan;99709.03;5037721;28;20475;-71
2022/06/09 02:43:41;;;;;;;5.03;3.70;;;;;;;18.36;nan;99725.13;5021044;28;20045;-70
2022/06/09 02:46:07;;;;;;;6.25;4.05;;;;;;;18.35;nan;99728.91;5044064;28;20037;-70
2022/06/09 02:48:33;;;;;;;6.85;4.05;;;;;;;18.26;nan;99714.66;5021550;28;20095;-71
2022/06/09 02:51:23;;;;;;;11.63;4.32;;;;;;;18.31;nan;99727.09;5036709;28;20041;-71
2022/06/09 02:53:52;;;;;;;7.03;4.65;;;;;;;18.29;nan;99727.38;5022030;28;20057;-70
2022/06/09 02:56:18;;;;;;;6.80;4.95;;;;;;;18.25;nan;99723.75;5020175;28;20399;-71
2022/06/09 02:58:44;;;;;;;8.05;5.40;;;;;;;18.24;nan;99725.63;5040521;28;20037;-71
2022/06/09 03:01:09;;;;;;;7.70;5.35;;;;;;;18.17;nan;99724.41;5050189;28;20117;-70
2022/06/09 03:03:35;;;;;;;8.35;5.78;;;;;;;18.22;nan;99740.28;5043565;28;20033;-69
2022/06/09 03:06:00;;;;;;;9.27;5.93;;;;;;;18.19;nan;99743.56;5049919;28;20433;-69
2022/06/09 03:08:28;;;;;;;7.53;5.63;;;;;;;18.19;nan;99730.22;5038799;28;20032;-71
2022/06/09 03:10:54;;;;;;;8.98;5.97;;;;;;;18.15;nan;99729.22;5050005;28;20194;-69
2022/06/09 03:13:20;;;;;;;6.78;5.53;;;;;;;18.14;nan;99735.66;5041238;28;20476;-69
2022/06/09 03:15:47;;;;;;;7.38;5.70;;;;;;;18.12;nan;99729.81;5036328;28;20041;-69
2022/06/09 03:18:14;;;;;;;8.93;6.50;;;;;;;18.09;nan;99720.53;5039009;28;20033;-68
2022/06/09 03:20:40;;;;;;;9.43;6.40;;;;;;;17.98;nan;99711.09;5049103;28;20040;-70
2022/06/09 03:23:05;;;;;;;7.90;6.20;;;;;;;18.04;nan;99728.59;5018479;28;20052;-68
2022/06/09 03:25:30;;;;;;;11.40;6.63;;;;;;;17.98;nan;99714.59;5039432;28;20037;-70
2022/06/09 03:27:56;;;;;;;9.43;6.97;;;;;;;17.92;nan;99699.75;5029918;28;20051;-71
2022/06/09 03:30:22;;;;;;;11.90;7.70;;;;;;;17.99;nan;99712.72;5031075;28;20033;-69
2022/06/09 03:32:48;;;;;;;10.30;7.78;;;;;;;18.00;nan;99712.41;5019022;28;20087;-70
2022/06/09 03:35:14;;;;;;;11.18;7.45;;;;;;;18.01;nan;99702.56;5031285;28;20481;-69
2022/06/09 03:37:39;;;;;;;10.73;7.43;;;;;;;18.12;nan;99722.59;5031276;28;20061;-72
2022/06/09 03:40:08;;;;;;;13.82;7.70;;;;;;;18.04;nan;99713.41;5036895;28;20065;-71
2022/06/09 03:42:34;;;;;;;9.93;7.35;;;;;;;18.06;nan;99715.78;5040239;28;20091;-69
2022/06/09 03:44:59;;;;;;;13.60;7.38;;;;;;;18.10;nan;99722.13;5039721;28;20024;-70
2022/06/09 03:47:25;;;;;;;12.23;7.03;;;;;;;18.07;nan;99720.03;5028093;28;20037;-70
2022/06/09 03:49:53;;;;;;;13.90;7.82;;;;;;;18.10;nan;99731.97;5012172;28;20087;-71
2022/06/09 03:52:18;;;;;;;11.35;7.68;;;;;;;18.06;nan;99719.25;5038398;28;20495;-69
2022/06/09 03:54:44;;;;;;;8.90;7.53;;;;;;;18.07;nan;99718.16;5038600;28;20036;-69
2022/06/09 03:57:10;;;;;;;17.80;7.85;;;;;;;18.14;nan;99738.31;5031809;28;20064;-71
2022/06/09 03:59:36;;;;;;;10.25;7.57;;;;;;;18.15;nan;99738.03;5036107;28;20052;-71
2022/06/09 04:02:01;;;;;;;13.30;7.53;;;;;;;18.02;nan;99722.78;5037661;28;20034;-71
2022/06/09 04:04:27;;;;;;;11.23;7.85;;;;;;;18.14;nan;99744.44;5035917;28;20072;-69
2022/06/09 04:06:53;;;;;;;11.57;8.00;;;;;;;18.10;nan;99737.31;5017865;28;20050;-68
2022/06/09 04:09:19;;;;;;;14.90;7.45;;;;;;;18.12;nan;99749.25;5032741;28;20620;-71
2022/06/09 04:11:45;;;;;;;10.32;7.55;;;;;;;18.13;nan;99755.41;5030727;28;20053;-68
2022/06/09 04:14:10;;;;;;;11.93;7.85;;;;;;;18.09;nan;99749.84;5044403;28;20779;-71
2022/06/09 04:16:40;;;;;;;11.18;7.63;;;;;;;18.10;nan;99756.78;5044998;28;20082;-70
2022/06/09 04:19:08;;;;;;;10.90;7.97;;;;;;;18.13;nan;99763.38;5049393;28;20025;-70
2022/06/09 04:21:35;;;;;;;10.27;7.93;;;;;;;18.15;nan;99759.34;5043955;28;20036;-70
2022/06/09 04:24:01;;;;;;;11.55;7.85;;;;;;;18.08;nan;99756.25;5023543;28;20041;-71
2022/06/09 04:26:30;;;;;;;10.98;8.45;;;;;;;18.10;nan;99761.28;5039484;28;20037;-70
2022/06/09 04:28:55;;;;;;;16.20;9.27;;;;;;;18.09;nan;99752.50;5038155;28;20044;-70
2022/06/09 04:31:22;;;;;;;10.57;8.48;;;;;;;18.09;nan;99752.50;5044027;28;20041;-70
2022/06/09 04:33:48;;;;;;;13.48;8.73;;;;;;;18.11;nan;99745.00;5048404;28;20121;-69
2022/06/09 04:36:15;;;;;;;10.98;8.75;;;;;;;18.11;nan;99739.69;5047764;28;20116;-68
2022/06/09 04:38:41;;;;;;;11.90;9.02;;;;;;;18.12;nan;99735.13;5021001;28;20049;-69
2022/06/09 04:41:09;;;;;;;15.15;9.07;;;;;;;18.14;nan;99738.31;5018596;28;20546;-69
2022/06/09 04:43:40;;;;;;;14.13;9.13;;;;;;;18.07;nan;99734.13;5044388;28;20530;-70
2022/06/09 04:46:06;;;;;;;10.70;8.10;;;;;;;18.18;nan;99731.31;5047505;28;20029;-70
2022/06/09 04:48:33;;;;;;;9.65;7.75;;;;;;;18.22;nan;99732.31;5045664;28;20049;-69
2022/06/09 04:50:59;;;;;;;13.98;7.47;;;;;;;18.27;nan;99729.56;5041875;28;20059;-70
2022/06/09 04:53:24;;;;;;;12.23;6.97;;;;;;;18.35;nan;99730.78;5044957;28;20033;-71
2022/06/09 04:55:50;;;;;;;9.88;6.47;;;;;;;18.21;nan;99693.44;5048051;28;20402;-70
2022/06/09 04:58:16;;;;;;;9.63;5.93;;;;;;;18.38;nan;99703.53;5035927;28;20067;-71
2022/06/09 05:00:42;;;;;;;9.55;6.22;;;;;;;18.61;nan;99715.13;5037571;28;20032;-68
2022/06/09 05:03:11;;;;;;;10.75;6.03;;;;;;;18.80;nan;99726.53;5029269;28;20518;-70
2022/06/09 05:05:39;;;;;;;8.45;4.20;;;;;;;18.99;nan;99729.09;5020063;28;20056;-70
2022/06/09 05:08:05;;;;;;;6.45;4.63;;;;;;;19.13;nan;99718.41;5046961;28;20039;-71
2022/06/09 05:10:31;;;;;;;8.93;5.30;;;;;;;19.37;nan;99726.19;5042729;28;20033;-70
2022/06/09 05:12:57;;;;;;;7.13;4.63;;;;;;;19.52;nan;99712.50;5047057;28;20087;-71
2022/06/09 05:15:23;;;;;;;7.00;4.32;;;;;;;19.65;nan;99713.53;5035189;28;20033;-70
2022/06/09 05:17:50;;;;;;;7.70;3.90;;;;;;;19.75;nan;99718.69;5039420;28;20064;-70
2022/06/09 05:20:21;;;;;;;7.13;4.28;;;;;;;19.80;nan;99717.78;5021764;28;20124;-71
2022/06/09 05:22:46;;;;;;;6.45;3.92;;;;;;;19.96;nan;99731.56;5015965;28;20037;-70
2022/06/09 05:25:13;;;;;;;6.65;4.20;;;;;;;19.94;nan;99713.19;5036911;28;20025;-71
2022/06/09 05:27:39;;;;;;;8.38;4.78;;;;;;;20.16;nan;99731.09;5042084;28;20037;-70
2022/06/09 05:30:07;;;;;;;15.48;5.82;;;;;;;20.29;nan;99726.75;5033647;28;20091;-70
2022/06/09 05:32:32;;;;;;;7.28;4.60;;;;;;;20.37;nan;99715.28;5037005;28;20044;-70
2022/06/09 05:34:58;;;;;;;4.20;3.72;;;;;;;20.61;nan;99730.22;5035907;28;20034;-70
2022/06/09 05:37:23;;;;;;;5.03;4.05;;;;;;;20.62;nan;99721.13;5043293;28;20036;-71
2022/06/09 05:45:18;;;;;;;4.60;3.13;;;;;;;20.81;nan;99699.47;5033817;28;20547;-71
2022/06/09 05:47:44;;;;;;;5.75;2.90;;;;;;;20.92;nan;99711.44;5033239;28;20045;-70
2022/06/09 05:50:11;;;;;;;7.57;3.08;;;;;;;21.01;nan;99724.88;5029006;28;20033;-71
2022/06/09 05:52:37;;;;;;;12.35;3.72;;;;;;;21.07;nan;99723.63;5013488;28;20026;-70
2022/06/09 05:55:04;;;;;;;4.90;3.45;;;;;;;21.21;nan;99726.97;5032996;28;20373;-70
2022/06/09 05:57:30;;;;;;;5.13;3.70;;;;;;;21.34;nan;99727.16;5036869;28;20060;-71
2022/06/09 05:59:56;;;;;;;5.78;3.72;;;;;;;21.31;nan;99720.53;5045348;28;20531;-70
2022/06/09 06:02:25;;;;;;;4.38;3.38;;;;;;;21.48;nan;99730.50;5037442;28;20033;-71
2022/06/09 06:04:52;;;;;;;5.70;3.80;;;;;;;21.60;nan;99743.28;5051781;28;20045;-72
2022/06/09 06:07:18;;;;;;;4.97;3.72;;;;;;;21.59;nan;99741.69;5043548;28;20036;-71
2022/06/09 06:09:43;;;;;;;5.90;3.50;;;;;;;21.63;nan;99742.66;5040825;28;20505;-71
2022/06/09 06:12:09;;;;;;;3.70;3.20;;;;;;;21.64;nan;99738.84;5038125;28;20045;-69
2022/06/09 06:14:35;;;;;;;5.30;3.13;;;;;;;21.69;nan;99740.59;5035374;28;20086;-70
2022/06/09 06:17:01;;;;;;;4.30;3.15;;;;;;;21.68;nan;99729.09;5046077;28;20041;-70
2022/06/09 06:19:27;;;;;;;6.13;3.40;;;;;;;21.75;nan;99724.03;5045428;28;20103;-71
2022/06/09 06:21:53;;;;;;;3.53;3.08;;;;;;;21.79;nan;99725.00;5049091;28;20467;-71
2022/06/09 06:24:21;;;;;;;7.57;3.00;;;;;;;21.92;nan;99733.97;5047818;28;20037;-71
2022/06/09 06:26:47;;;;;;;7.50;3.50;;;;;;;21.94;nan;99721.03;5044786;28;20025;-71
2022/06/09 06:29:21;;;;;;;3.78;2.85;;;;;;;22.05;nan;99733.00;5029477;28;20036;-70
2022/06/09 06:31:47;;;;;;;4.70;2.92;;;;;;;22.01;nan;99717.88;5024503;28;20043;-71
2022/06/09 06:34:12;;;;;;;2.95;2.50;;;;;;;22.04;nan;99715.34;5045903;28;20090;-73
2022/06/09 06:36:38;;;;;;;4.00;3.03;;;;;;;22.13;nan;99719.91;5028344;28;20041;-72
2022/06/09 06:39:04;;;;;;;5.93;2.88;;;;;;;22.12;nan;99721.78;5024856;28;20033;-73
2022/06/09 06:41:30;;;;;;;4.90;2.97;;;;;;;22.09;nan;99717.06;5049164;28;20489;-72
2022/06/09 06:43:56;;;;;;;8.23;3.50;;;;;;;22.03;nan;99715.69;5043576;28;20037;-72
2022/06/09 06:46:22;;;;;;;5.95;2.80;;;;;;;22.04;nan;99722.59;5032913;28;20049;-72
2022/06/09 06:48:47;;;;;;;7.03;3.60;;;;;;;21.97;nan;99725.75;5031921;28;20093;-72
2022/06/09 06:51:13;;;;;;;4.38;3.60;;;;;;;21.92;nan;99717.09;5034663;28;20025;-71
2022/06/09 06:53:39;;;;;;;5.40;3.50;;;;;;;21.88;nan;99717.75;5023543;28;20108;-71
2022/06/09 06:56:06;;;;;;;4.53;4.10;;;;;;;21.94;nan;99721.03;5040311;28;20037;-71
2022/06/09 06:58:31;;;;;;;8.63;4.53;;;;;;;21.90;nan;99721.97;5044307;28;20036;-71
2022/06/09 07:00:59;;;;;;;5.47;4.47;;;;;;;21.90;nan;99720.09;5042954;28;20442;-72
2022/06/09 07:03:25;;;;;;;9.43;5.50;;;;;;;21.93;nan;99722.13;5045960;28;20033;-70
2022/06/09 07:05:50;;;;;;;6.57;4.72;;;;;;;21.81;nan;99711.25;5022711;28;20045;-72
2022/06/09 07:08:16;;;;;;;9.10;5.30;;;;;;;21.91;nan;99716.31;5046172;28;20116;-70
2022/06/09 07:10:44;;;;;;;6.53;5.10;;;;;;;21.90;nan;99720.09;5031710;28;20057;-70
2022/06/09 07:13:09;;;;;;;6.25;5.35;;;;;;;21.96;nan;99728.78;5028243;28;20033;-70
2022/06/09 07:15:35;;;;;;;9.45;5.70;;;;;;;21.96;nan;99720.72;5042420;28;20059;-70
2022/06/09 07:18:00;;;;;;;7.75;5.93;;;;;;;21.99;nan;99726.22;5051856;28;20495;-71
2022/06/09 07:20:27;;;;;;;9.02;6.22;;;;;;;22.04;nan;99727.97;5035414;28;20120;-71
2022/06/09 07:22:53;;;;;;;9.75;5.28;;;;;;;22.01;nan;99724.03;5032598;28;20033;-70
2022/06/09 07:25:20;;;;;;;10.35;5.40;;;;;;;22.06;nan;99728.44;5042076;28;20025;-70
2022/06/09 07:27:48;;;;;;;6.82;5.07;;;;;;;22.03;nan;99715.69;5027528;28;20534;-71
2022/06/09 07:30:15;;;;;;;8.30;4.88;;;;;;;22.11;nan;99719.44;5030901;28;20029;-69
2022/06/09 07:32:41;;;;;;;7.03;5.60;;;;;;;22.18;nan;99731.25;5033094;28;20364;-70
2022/06/09 07:35:08;;;;;;;7.68;4.88;;;;;;;22.21;nan;99722.59;5031473;28;20041;-70
2022/06/09 07:37:34;;;;;;;6.95;5.20;;;;;;;22.23;nan;99717.69;5031593;28;20040;-70
2022/06/09 07:40:00;;;;;;;9.15;5.47;;;;;;;22.35;nan;99726.97;5031378;28;20041;-71
2022/06/09 07:42:26;;;;;;;6.13;4.85;;;;;;;22.39;nan;99719.88;5050808;28;20037;-71
2022/06/09 07:44:55;;;;;;;6.13;4.80;;;;;;;22.44;nan;99722.38;5024353;28;20033;-69
2022/06/09 07:47:20;;;;;;;7.85;4.90;;;;;;;22.49;nan;99701.53;5034933;28;20462;-70
2022/06/09 07:49:47;;;;;;;8.90;4.55;;;;;;;22.56;nan;99705.63;5034768;28;20141;-67
2022/06/09 07:52:13;;;;;;;5.90;4.72;;;;;;;22.57;nan;99701.81;5033105;28;20811;-66
2022/06/09 07:54:38;;;;;;;5.57;4.47;;;;;;;22.65;nan;99706.34;5028090;28;20025;-70
2022/06/09 07:57:04;;;;;;;5.70;4.25;;;;;;;22.68;nan;99703.81;5030482;28;20061;-70
2022/06/09 07:59:29;;;;;;;7.80;4.03;;;;;;;;;;5028283;28;20056;-70
2022/06/09 08:01:55;;;;;;;8.05;3.63;;;;;;;22.78;nan;99699.97;5031223;28;20707;-69
2022/06/09 08:04:20;;;;;;;7.15;3.28;;;;;;;22.84;nan;99703.25;5023816;28;20037;-71
2022/06/09 08:06:46;;;;;;;5.97;3.67;;;;;;;22.78;nan;99683.09;5044617;28;20021;-71
2022/06/09 08:09:12;;;;;;;5.22;3.10;;;;;;;22.87;nan;99694.56;5050447;28;20036;-69
2022/06/09 08:11:40;;;;;;;4.18;2.75;;;;;;;22.91;nan;99695.47;5046736;28;20041;-69
2022/06/09 08:14:08;;;;;;;;;;;;;;;22.94;nan;99689.47;5018759;28;20432;-69
2022/06/09 08:16:33;;;;;;;3.70;2.90;;;;;;;23.01;nan;99688.97;5047675;28;20263;-70
2022/06/09 08:18:59;;;;;;;6.20;2.30;;;;;;;23.04;nan;99681.06;5048950;28;20090;-68
2022/06/09 08:21:27;;;;;;;6.60;2.10;;;;;;;23.11;nan;99684.03;5027758;28;20045;-68
2022/06/09 08:23:53;;;;;;;3.05;1.95;;;;;;;23.14;nan;99686.06;5033636;28;20108;-68
2022/06/09 08:26:19;;;;;;;5.65;2.13;;;;;;;23.14;nan;99675.31;5035083;28;20121;-69
2022/06/09 08:28:44;;;;;;;3.33;2.15;;;;;;;23.12;nan;99666.78;5027412;28;20075;-69
2022/06/09 08:31:11;;;;;;;3.25;1.70;;;;;;;23.12;nan;99666.78;5046610;28;20032;-69
2022/06/09 08:33:36;;;;;;;3.10;1.67;;;;;;;23.16;nan;99672.31;5035150;28;20025;-70
2022/06/09 08:36:03;;;;;;;2.00;1.65;;;;;;;23.08;nan;99660.50;5034464;28;20037;-68
2022/06/09 08:38:28;;;;;;;2.10;1.90;;;;;;;23.14;nan;99663.78;5051605;28;20037;-68
2022/06/09 08:41:17;;;;;;;2.03;1.80;;;;;;;23.19;nan;99663.59;5021613;28;20079;-70
2022/06/09 08:44:35;;;;;;;6.22;2.30;;;;;;;23.25;nan;99669.53;5035494;28;20036;-68
2022/06/09 08:47:33;;;;;;;2.85;2.10;;;;;;;23.27;nan;99659.25;4950660;28;20090;-70
2022/06/09 08:50:04;;;;;;;2.15;1.73;;;;;;;23.31;nan;99655.59;4950067;28;20603;-71
2022/06/09 08:53:24;;;;;;;2.53;2.20;;;;;;;23.47;nan;99655.78;4948092;28;20129;-71
2022/06/09 08:56:00;;;;;;;3.60;2.10;;;;;;;23.51;nan;99645.16;4889093;29;20045;-69
2022/06/09 08:58:25;;;;;;;3.58;2.13;;;;;;;23.62;nan;99649.00;4885141;29;20530;-68
2022/06/09 09:01:11;;;;;;;2.60;1.85;;;;;;;23.71;nan;99648.94;4873260;29;20088;-68
2022/06/09 09:03:42;;;;;;;2.20;2.00;;;;;;;23.82;nan;99647.41;4875448;29;20060;-68
2022/06/09 09:06:29;;;;;;;5.18;1.98;;;;;;;23.86;nan;99634.09;4888722;29;20102;-70
2022/06/09 09:09:22;;;;;;;3.30;1.85;;;;;;;23.96;nan;99628.28;4873091;29;20181;-71
2022/06/09 09:11:55;;;;;;;3.75;1.90;;;;;;;24.09;nan;99624.50;4874325;29;20104;-70
2022/06/09 09:14:29;;;;;;;2.38;1.98;;;;;;;24.25;nan;99635.38;4893496;29;20562;-70
2022/06/09 09:17:34;;;;;;;2.42;1.80;;;;;;;24.38;nan;99642.34;4889083;29;20104;-70
2022/06/09 09:20:12;;;;;;;2.33;2.00;;;;;;;24.57;nan;99641.81;4840299;29;20046;-70
2022/06/09 09:22:48;;;;;;;3.78;2.10;;;;;;;24.69;nan;99635.66;4873888;29;20210;-70
2022/06/09 09:25:35;;;;;;;2.38;1.88;;;;;;;24.78;nan;99628.25;4872023;29;20037;-70
2022/06/09 09:28:08;;;;;;;2.38;1.92;;;;;;;24.83;nan;99622.63;4888582;29;20045;-71
2022/06/09 09:30:52;;;;;;;3.40;1.90;;;;;;;24.93;nan;99613.28;4961629;28;20078;-70
2022/06/09 09:33:20;;;;;;;4.50;1.90;;;;;;;25.01;nan;99617.75;4970115;28;20565;-70
2022/06/09 09:35:50;;;;;;;4.80;2.38;;;;;;;25.09;nan;99616.03;4970887;28;20541;-70
2022/06/09 09:38:17;;;;;;;2.78;2.08;;;;;;;24.94;nan;99587.91;4972914;28;20393;-69
2022/06/09 09:40:57;;;;;;;5.30;2.17;;;;;;;25.14;nan;99607.72;4968530;28;20047;-69
2022/06/09 09:43:35;;;;;;;3.92;2.00;;;;;;;25.21;nan;99607.16;4966377;28;20509;-72
2022/06/09 09:46:01;;;;;;;2.50;2.00;;;;;;;25.21;nan;99604.47;4952311;28;20058;-72
2022/06/09 09:48:32;;;;;;;2.92;1.85;;;;;;;25.31;nan;99608.56;4975270;28;20034;-72
2022/06/09 09:51:11;;;;;;;6.40;2.15;;;;;;;25.29;nan;99594.69;4965889;28;20046;-72
2022/06/09 09:53:51;;;;;;;6.72;1.90;;;;;;;25.43;nan;99612.03;4999561;28;20041;-72
2022/06/09 09:56:17;;;;;;;3.38;2.00;;;;;;;25.53;nan;99612.66;5018883;28;20095;-71
2022/06/09 09:58:48;;;;;;;4.85;2.03;;;;;;;25.64;nan;99609.13;5033351;28;20033;-71
2022/06/09 10:01:14;;;;;;;3.65;2.22;;;;;;;25.70;nan;99611.56;5041203;28;20076;-71
2022/06/09 10:09:54;;;;;;;5.15;2.00;;;;;;;25.55;nan;99586.91;5033897;28;20471;-68
2022/06/09 10:12:22;;;;;;;3.33;1.90;;;;;;;25.66;nan;99596.06;5041087;28;20048;-68
2022/06/09 10:14:53;;;;;;;2.40;1.77;;;;;;;25.70;nan;99601.56;5035734;28;20390;-69
2022/06/09 10:18:02;;;;;;;4.63;2.03;;;;;;;25.68;nan;99580.31;5037166;28;20423;-69
2022/06/09 10:20:43;;;;;;;7.80;1.95;;;;;;;25.81;nan;99591.81;5035730;28;20033;-70
2022/06/09 10:23:16;;;;;;;4.57;2.35;;;;;;;25.85;nan;99591.91;5037137;28;20052;-70
2022/06/09 10:26:06;;;;;;;2.03;1.83;;;;;;;25.88;nan;99588.53;5042918;28;20061;-68
2022/06/09 10:28:43;;;;;;;4.10;1.90;;;;;;;25.90;nan;99591.66;5058449;28;20085;-68
2022/06/09 10:31:17;;;;;;;2.72;2.00;;;;;;;25.95;nan;99577.91;5045170;28;20045;-70
2022/06/09 10:33:52;;;;;;;4.95;2.30;;;;;;;26.01;nan;99573.06;5040503;28;20098;-69
2022/06/09 10:36:27;;;;;;;6.60;2.13;;;;;;;26.15;nan;99586.91;5047736;28;20045;-69
2022/06/09 10:38:59;;;;;;;9.43;2.10;;;;;;;26.12;nan;99576.78;5021510;28;20037;-70
2022/06/09 10:41:45;;;;;;;2.10;1.90;;;;;;;26.24;nan;99586.69;5034571;28;20025;-69
2022/06/09 10:44:26;;;;;;;4.93;1.90;;;;;;;26.20;nan;99562.34;5037706;28;20294;-69
2022/06/09 10:55:50;;;;;;;4.85;2.03;;;;;;;26.44;nan;99555.16;5040744;28;20037;-72
2022/06/09 10:58:23;;;;;;;4.50;1.85;;;;;;;26.56;nan;99559.69;5041688;28;20048;-71
2022/06/09 11:01:00;;;;;;;5.22;1.90;;;;;;;26.62;nan;99550.16;5027262;28;20029;-71
2022/06/09 11:03:35;;;;;;;6.93;2.17;;;;;;;26.69;nan;99550.31;5018966;28;20044;-69
2022/06/09 11:06:23;;;;;;;3.75;1.90;;;;;;;26.69;nan;99544.91;5026811;28;20120;-70
2022/06/09 11:09:26;;;;;;;5.05;2.00;;;;;;;26.79;nan;99547.03;5027610;28;20045;-71
2022/06/09 11:12:26;;;;;;;4.28;2.10;;;;;;;26.87;nan;99537.19;5029778;28;20049;-74
2022/06/09 11:15:03;;;;;;;4.70;2.50;;;;;;;27.04;nan;99533.25;5027960;28;20052;-71
2022/06/09 11:17:44;;;;;;;4.72;2.15;;;;;;;27.14;nan;99527.28;5024432;28;20033;-74
2022/06/09 11:20:15;;;;;;;1.85;1.70;;;;;;;27.25;nan;99528.28;5038681;28;20083;-72
2022/06/09 11:23:14;;;;;;;3.47;1.85;;;;;;;27.31;nan;99526.06;5032515;28;20142;-71
2022/06/09 11:26:11;;;;;;;1.90;1.67;;;;;;;27.38;nan;99520.78;5039523;28;20117;-73
2022/06/09 11:29:09;;;;;;;5.05;2.40;;;;;;;27.43;nan;99517.00;5041657;28;20033;-71
2022/06/09 11:31:53;;;;;;;3.43;1.73;;;;;;;27.50;nan;99506.31;5044059;28;20032;-72
2022/06/09 11:34:33;;;;;;;3.75;1.90;;;;;;;27.52;nan;99507.50;5031505;28;20492;-71
2022/06/09 11:36:59;;;;;;;4.45;1.73;;;;;;;27.51;nan;99508.66;5037040;28;20041;-71
2022/06/09 11:39:51;;;;;;;2.72;1.70;;;;;;;27.39;nan;99511.53;5050833;28;20064;-72
2022/06/09 11:42:41;;;;;;;6.13;1.85;;;;;;;27.32;nan;99511.41;5028654;28;20036;-72
2022/06/09 11:45:26;;;;;;;5.70;1.73;;;;;;;27.27;nan;99507.09;5052485;28;20383;-72
2022/06/09 11:47:54;;;;;;;7.47;2.30;;;;;;;27.03;nan;99486.56;5037455;28;20036;-69
2022/06/09 11:50:24;;;;;;;4.53;2.60;;;;;;;27.00;nan;99499.97;5035336;28;20069;-69
2022/06/09 11:52:50;;;;;;;6.63;2.60;;;;;;;27.01;nan;99507.75;5030960;28;21139;-69
2022/06/09 11:58:34;;;;;;;3.90;2.50;;;;;;;26.65;nan;99492.72;5046868;28;20028;-68
2022/06/09 12:01:22;;;;;;;5.60;2.70;;;;;;;26.56;nan;99494.88;5047126;28;20053;-69
2022/06/09 12:04:24;;;;;;;5.60;3.33;;;;;;;26.55;nan;99501.41;5039804;28;20040;-68
2022/06/09 12:06:56;;;;;;;8.90;3.30;;;;;;;26.39;nan;99504.16;5044247;28;20033;-69
2022/06/09 12:09:42;;;;;;;4.85;2.88;;;;;;;26.19;nan;99490.59;5044545;28;20374;-71
2022/06/09 12:12:29;;;;;;;9.13;2.50;;;;;;;26.16;nan;99485.13;5032091;28;20049;-72
2022/06/09 12:15:25;;;;;;;5.28;2.88;;;;;;;26.12;nan;99484.25;5033614;28;20029;-72
2022/06/09 12:17:54;;;;;;;7.95;2.90;;;;;;;25.97;nan;99481.25;5034067;28;20132;-69
2022/06/09 12:20:29;;;;;;;;;;;;;;;25.79;nan;99485.44;5045571;28;20499;-70
2022/06/09 12:23:25;;;;;;;9.73;3.10;;;;;;;25.71;nan;99484.47;5029611;28;20015;-68
2022/06/09 12:26:08;;;;;;;7.00;2.92;;;;;;;25.59;nan;99484.56;5033335;28;20560;-72
2022/06/09 12:28:49;;;;;;;6.72;3.40;;;;;;;25.54;nan;99487.50;5025820;28;20045;-71
2022/06/09 12:31:18;;;;;;;7.15;3.42;;;;;;;25.48;nan;99481.59;5029498;28;20556;-72
2022/06/09 12:33:59;;;;;;;6.95;3.10;;;;;;;25.34;nan;99473.16;5029923;28;20064;-73
2022/06/09 12:36:41;;;;;;;6.63;3.50;;;;;;;25.27;nan;99473.75;5043069;28;20041;-72